sensor_id;sensor_type;location;lat;lon;timestamp;temperature;humidity
3208;DHT22;1616;52.394;9.756;2022-12-07T00:01:08;5.40;5.10
3208;DHT22;1616;52.394;9.756;2022-12-07T00:03:36;5.40;5.30
3208;DHT22;1616;52.394;9.756;2022-12-07T00:06:03;5.40;5.20
3208;DHT22;1616;52.394;9.756;2022-12-07T00:08:30;5.50;5.30
3208;DHT22;1616;52.394;9.756;2022-12-07T00:11:05;5.50;5.40
3208;DHT22;1616;52.394;9.756;2022-12-07T00:13:32;5.50;5.40
3208;DHT22;1616;52.394;9.756;2022-12-07T00:16:16;5.50;5.20
3208;DHT22;1616;52.394;9.756;2022-12-07T00:18:42;5.50;5.40
3208;DHT22;1616;52.394;9.756;2022-12-07T00:21:14;5.60;5.00
3208;DHT22;1616;52.394;9.756;2022-12-07T00:23:41;5.50;5.00
3208;DHT22;1616;52.394;9.756;2022-12-07T00:28:34;5.60;5.20
3208;DHT22;1616;52.394;9.756;2022-12-07T00:31:08;5.60;5.20
3208;DHT22;1616;52.394;9.756;2022-12-07T00:33:35;5.60;5.10
3208;DHT22;1616;52.394;9.756;2022-12-07T00:36:02;5.30;5.00
3208;DHT22;1616;52.394;9.756;2022-12-07T00:38:30;5.60;5.00
3208;DHT22;1616;52.394;9.756;2022-12-07T00:41:01;5.60;5.00
3208;DHT22;1616;52.394;9.756;2022-12-07T00:43:27;5.60;5.20
3208;DHT22;1616;52.394;9.756;2022-12-07T00:45:53;5.60;5.20
3208;DHT22;1616;52.394;9.756;2022-12-07T00:48:19;5.60;5.40
3208;DHT22;1616;52.394;9.756;2022-12-07T00:50:45;5.60;5.60
3208;DHT22;1616;52.394;9.756;2022-12-07T00:53:11;5.60;5.80
3208;DHT22;1616;52.394;9.756;2022-12-07T00:55:37;5.60;5.80
3208;DHT22;1616;52.394;9.756;2022-12-07T00:58:03;5.60;5.80
3208;DHT22;1616;52.394;9.756;2022-12-07T01:00:29;5.60;5.60
3208;DHT22;1616;52.394;9.756;2022-12-07T01:02:55;5.60;5.80
3208;DHT22;1616;52.394;9.756;2022-12-07T01:05:20;5.60;5.60
3208;DHT22;1616;52.394;9.756;2022-12-07T01:07:46;5.60;5.70
3208;DHT22;1616;52.394;9.756;2022-12-07T01:10:13;5.70;6.40
3208;DHT22;1616;52.394;9.756;2022-12-07T01:12:39;5.70;5.70
3208;DHT22;1616;52.394;9.756;2022-12-07T01:15:06;5.70;5.80
3208;DHT22;1616;52.394;9.756;2022-12-07T01:17:32;5.70;5.70
3208;DHT22;1616;52.394;9.756;2022-12-07T01:19:57;5.70;5.60
3208;DHT22;1616;52.394;9.756;2022-12-07T01:22:23;5.70;5.60
3208;DHT22;1616;52.394;9.756;2022-12-07T01:24:50;5.80;6.10
3208;DHT22;1616;52.394;9.756;2022-12-07T01:27:16;5.70;5.40
3208;DHT22;1616;52.394;9.756;2022-12-07T01:29:42;5.70;5.40
3208;DHT22;1616;52.394;9.756;2022-12-07T01:32:08;5.70;5.20
3208;DHT22;1616;52.394;9.756;2022-12-07T01:34:34;5.70;5.30
3208;DHT22;1616;52.394;9.756;2022-12-07T01:37:01;5.70;5.50
3208;DHT22;1616;52.394;9.756;2022-12-07T01:39:26;5.70;5.80
3208;DHT22;1616;52.394;9.756;2022-12-07T01:41:52;5.70;5.80
3208;DHT22;1616;52.394;9.756;2022-12-07T01:44:21;5.70;5.80
3208;DHT22;1616;52.394;9.756;2022-12-07T01:49:37;5.70;5.80
3208;DHT22;1616;52.394;9.756;2022-12-07T01:52:28;5.60;5.80
3208;DHT22;1616;52.394;9.756;2022-12-07T01:55:02;5.60;5.80
3208;DHT22;1616;52.394;9.756;2022-12-07T01:57:29;5.60;5.80
3208;DHT22;1616;52.394;9.756;2022-12-07T01:59:57;5.60;5.60
3208;DHT22;1616;52.394;9.756;2022-12-07T02:02:26;5.50;5.40
3208;DHT22;1616;52.394;9.756;2022-12-07T02:04:53;5.50;5.00
3208;DHT22;1616;52.394;9.756;2022-12-07T02:07:21;5.40;4.80
3208;DHT22;1616;52.394;9.756;2022-12-07T02:09:49;5.40;4.80
3208;DHT22;1616;52.394;9.756;2022-12-07T02:12:15;5.40;4.80
3208;DHT22;1616;52.394;9.756;2022-12-07T02:14:41;5.40;4.90
3208;DHT22;1616;52.394;9.756;2022-12-07T02:22:50;5.30;4.60
3208;DHT22;1616;52.394;9.756;2022-12-07T02:28:35;5.10;4.30
3208;DHT22;1616;52.394;9.756;2022-12-07T02:31:11;5.20;4.50
3208;DHT22;1616;52.394;9.756;2022-12-07T02:33:46;5.20;4.50
3208;DHT22;1616;52.394;9.756;2022-12-07T02:36:22;5.10;4.30
3208;DHT22;1616;52.394;9.756;2022-12-07T02:39:02;5.10;4.20
3208;DHT22;1616;52.394;9.756;2022-12-07T02:41:38;5.10;4.10
3208;DHT22;1616;52.394;9.756;2022-12-07T02:44:08;5.00;3.90
3208;DHT22;1616;52.394;9.756;2022-12-07T02:46:41;5.00;3.80
3208;DHT22;1616;52.394;9.756;2022-12-07T02:49:08;5.00;3.50
3208;DHT22;1616;52.394;9.756;2022-12-07T02:51:39;5.00;3.30
3208;DHT22;1616;52.394;9.756;2022-12-07T02:54:17;4.90;3.20
3208;DHT22;1616;52.394;9.756;2022-12-07T03:00:05;4.90;4.00
3208;DHT22;1616;52.394;9.756;2022-12-07T03:02:45;4.90;4.70
3208;DHT22;1616;52.394;9.756;2022-12-07T03:05:27;5.00;5.40
3208;DHT22;1616;52.394;9.756;2022-12-07T03:13:59;5.20;5.50
3208;DHT22;1616;52.394;9.756;2022-12-07T03:16:40;5.20;5.50
3208;DHT22;1616;52.394;9.756;2022-12-07T03:19:11;5.20;5.50
3208;DHT22;1616;52.394;9.756;2022-12-07T03:21:41;5.30;5.60
3208;DHT22;1616;52.394;9.756;2022-12-07T03:24:36;5.30;5.60
3208;DHT22;1616;52.394;9.756;2022-12-07T03:32:49;5.30;4.90
3208;DHT22;1616;52.394;9.756;2022-12-07T03:38:11;5.30;4.60
3208;DHT22;1616;52.394;9.756;2022-12-07T03:40:50;5.30;4.60
3208;DHT22;1616;52.394;9.756;2022-12-07T03:43:18;5.30;4.60
3208;DHT22;1616;52.394;9.756;2022-12-07T03:45:53;5.40;4.60
3208;DHT22;1616;52.394;9.756;2022-12-07T03:53:59;5.20;4.20
3208;DHT22;1616;52.394;9.756;2022-12-07T03:56:26;5.20;4.30
3208;DHT22;1616;52.394;9.756;2022-12-07T03:58:54;5.20;4.40
3208;DHT22;1616;52.394;9.756;2022-12-07T04:01:23;5.20;4.20
3208;DHT22;1616;52.394;9.756;2022-12-07T04:03:49;5.20;4.20
3208;DHT22;1616;52.394;9.756;2022-12-07T04:06:15;5.20;3.80
3208;DHT22;1616;52.394;9.756;2022-12-07T04:08:40;5.20;3.70
3208;DHT22;1616;52.394;9.756;2022-12-07T04:11:06;5.10;3.40
3208;DHT22;1616;52.394;9.756;2022-12-07T04:13:32;5.10;3.60
3208;DHT22;1616;52.394;9.756;2022-12-07T04:16:17;5.10;3.90
3208;DHT22;1616;52.394;9.756;2022-12-07T04:18:43;5.10;3.80
3208;DHT22;1616;52.394;9.756;2022-12-07T04:21:09;5.10;3.80
3208;DHT22;1616;52.394;9.756;2022-12-07T04:23:34;5.10;3.90
3208;DHT22;1616;52.394;9.756;2022-12-07T04:26:00;5.10;3.80
3208;DHT22;1616;52.394;9.756;2022-12-07T04:28:26;5.10;3.80
3208;DHT22;1616;52.394;9.756;2022-12-07T04:30:51;5.10;3.80
3208;DHT22;1616;52.394;9.756;2022-12-07T04:33:17;5.10;3.80
3208;DHT22;1616;52.394;9.756;2022-12-07T04:35:43;5.10;3.90
3208;DHT22;1616;52.394;9.756;2022-12-07T04:38:10;5.10;4.00
3208;DHT22;1616;52.394;9.756;2022-12-07T04:40:36;5.10;4.00
3208;DHT22;1616;52.394;9.756;2022-12-07T04:43:02;5.10;4.20
3208;DHT22;1616;52.394;9.756;2022-12-07T04:45:28;5.10;4.30
3208;DHT22;1616;52.394;9.756;2022-12-07T04:47:54;5.10;4.30
3208;DHT22;1616;52.394;9.756;2022-12-07T04:50:20;5.20;4.30
3208;DHT22;1616;52.394;9.756;2022-12-07T04:52:46;5.20;4.20
3208;DHT22;1616;52.394;9.756;2022-12-07T04:55:11;5.20;4.20
3208;DHT22;1616;52.394;9.756;2022-12-07T04:57:37;5.20;4.20
3208;DHT22;1616;52.394;9.756;2022-12-07T05:00:03;5.10;4.10
3208;DHT22;1616;52.394;9.756;2022-12-07T05:02:29;5.20;4.10
3208;DHT22;1616;52.394;9.756;2022-12-07T05:04:54;5.20;4.00
3208;DHT22;1616;52.394;9.756;2022-12-07T05:07:21;5.20;3.80
3208;DHT22;1616;52.394;9.756;2022-12-07T05:09:47;5.20;3.70
3208;DHT22;1616;52.394;9.756;2022-12-07T05:12:13;5.10;3.70
3208;DHT22;1616;52.394;9.756;2022-12-07T05:14:38;5.10;3.80
3208;DHT22;1616;52.394;9.756;2022-12-07T05:17:05;5.10;3.80
3208;DHT22;1616;52.394;9.756;2022-12-07T05:19:31;5.20;3.70
3208;DHT22;1616;52.394;9.756;2022-12-07T05:21:56;5.10;3.50
3208;DHT22;1616;52.394;9.756;2022-12-07T05:24:22;5.10;3.30
3208;DHT22;1616;52.394;9.756;2022-12-07T05:26:49;5.10;3.10
3208;DHT22;1616;52.394;9.756;2022-12-07T05:29:16;5.10;2.80
3208;DHT22;1616;52.394;9.756;2022-12-07T05:31:43;5.00;2.60
3208;DHT22;1616;52.394;9.756;2022-12-07T05:34:09;5.00;2.40
3208;DHT22;1616;52.394;9.756;2022-12-07T05:36:35;4.90;2.30
3208;DHT22;1616;52.394;9.756;2022-12-07T05:39:01;4.90;2.20
3208;DHT22;1616;52.394;9.756;2022-12-07T05:41:26;4.90;2.20
3208;DHT22;1616;52.394;9.756;2022-12-07T05:44:11;4.80;1.80
3208;DHT22;1616;52.394;9.756;2022-12-07T05:46:37;4.80;1.80
3208;DHT22;1616;52.394;9.756;2022-12-07T05:49:03;4.80;2.10
3208;DHT22;1616;52.394;9.756;2022-12-07T05:51:28;4.80;2.40
3208;DHT22;1616;52.394;9.756;2022-12-07T05:53:54;4.80;2.80
3208;DHT22;1616;52.394;9.756;2022-12-07T05:56:20;4.80;3.00
3208;DHT22;1616;52.394;9.756;2022-12-07T05:58:46;4.80;3.20
3208;DHT22;1616;52.394;9.756;2022-12-07T06:01:30;4.80;3.40
3208;DHT22;1616;52.394;9.756;2022-12-07T06:03:56;4.80;3.60
3208;DHT22;1616;52.394;9.756;2022-12-07T06:06:21;4.90;3.70
3208;DHT22;1616;52.394;9.756;2022-12-07T06:08:47;4.90;3.80
3208;DHT22;1616;52.394;9.756;2022-12-07T06:11:15;5.00;3.90
3208;DHT22;1616;52.394;9.756;2022-12-07T06:13:59;4.90;3.80
3208;DHT22;1616;52.394;9.756;2022-12-07T06:16:26;5.00;3.70
3208;DHT22;1616;52.394;9.756;2022-12-07T06:18:52;5.00;3.60
3208;DHT22;1616;52.394;9.756;2022-12-07T06:21:17;5.00;3.80
3208;DHT22;1616;52.394;9.756;2022-12-07T06:23:43;5.00;3.70
3208;DHT22;1616;52.394;9.756;2022-12-07T06:26:09;5.00;3.50
3208;DHT22;1616;52.394;9.756;2022-12-07T06:28:35;5.00;3.30
3208;DHT22;1616;52.394;9.756;2022-12-07T06:31:01;5.10;3.20
3208;DHT22;1616;52.394;9.756;2022-12-07T06:33:28;5.00;3.00
3208;DHT22;1616;52.394;9.756;2022-12-07T06:35:55;4.90;2.90
3208;DHT22;1616;52.394;9.756;2022-12-07T06:38:21;4.90;2.80
3208;DHT22;1616;52.394;9.756;2022-12-07T06:40:47;4.90;2.90
3208;DHT22;1616;52.394;9.756;2022-12-07T06:43:13;4.90;2.80
3208;DHT22;1616;52.394;9.756;2022-12-07T06:45:40;4.90;2.80
3208;DHT22;1616;52.394;9.756;2022-12-07T06:48:06;4.90;2.60
3208;DHT22;1616;52.394;9.756;2022-12-07T06:50:38;4.80;2.80
3208;DHT22;1616;52.394;9.756;2022-12-07T06:53:03;4.80;2.80
3208;DHT22;1616;52.394;9.756;2022-12-07T06:55:29;4.70;2.80
3208;DHT22;1616;52.394;9.756;2022-12-07T06:57:54;4.70;3.10
3208;DHT22;1616;52.394;9.756;2022-12-07T07:00:20;4.60;3.00
3208;DHT22;1616;52.394;9.756;2022-12-07T07:02:46;4.60;3.20
3208;DHT22;1616;52.394;9.756;2022-12-07T07:05:11;4.50;3.30
3208;DHT22;1616;52.394;9.756;2022-12-07T07:07:37;4.50;3.40
3208;DHT22;1616;52.394;9.756;2022-12-07T07:10:04;4.50;3.40
3208;DHT22;1616;52.394;9.756;2022-12-07T07:12:29;4.50;3.30
3208;DHT22;1616;52.394;9.756;2022-12-07T07:14:55;4.40;3.20
3208;DHT22;1616;52.394;9.756;2022-12-07T07:17:21;4.40;3.20
3208;DHT22;1616;52.394;9.756;2022-12-07T07:19:47;4.40;3.30
3208;DHT22;1616;52.394;9.756;2022-12-07T07:22:13;4.40;3.70
3208;DHT22;1616;52.394;9.756;2022-12-07T07:24:39;4.30;3.80
3208;DHT22;1616;52.394;9.756;2022-12-07T07:27:04;4.40;4.30
3208;DHT22;1616;52.394;9.756;2022-12-07T07:29:30;4.40;4.50
3208;DHT22;1616;52.394;9.756;2022-12-07T07:31:56;4.50;4.60
3208;DHT22;1616;52.394;9.756;2022-12-07T07:34:21;4.40;4.60
3208;DHT22;1616;52.394;9.756;2022-12-07T07:36:47;4.40;4.60
3208;DHT22;1616;52.394;9.756;2022-12-07T07:39:13;4.40;4.60
3208;DHT22;1616;52.394;9.756;2022-12-07T07:41:39;4.40;4.80
3208;DHT22;1616;52.394;9.756;2022-12-07T07:44:04;4.40;4.80
3208;DHT22;1616;52.394;9.756;2022-12-07T07:46:30;4.40;4.60
3208;DHT22;1616;52.394;9.756;2022-12-07T07:48:58;4.40;4.50
3208;DHT22;1616;52.394;9.756;2022-12-07T07:51:24;4.50;5.00
3208;DHT22;1616;52.394;9.756;2022-12-07T07:53:53;4.50;5.00
3208;DHT22;1616;52.394;9.756;2022-12-07T07:56:19;4.50;5.10
3208;DHT22;1616;52.394;9.756;2022-12-07T07:58:45;4.50;5.10
3208;DHT22;1616;52.394;9.756;2022-12-07T08:01:11;4.50;4.80
3208;DHT22;1616;52.394;9.756;2022-12-07T08:03:39;4.50;4.80
3208;DHT22;1616;52.394;9.756;2022-12-07T08:06:05;4.50;5.00
3208;DHT22;1616;52.394;9.756;2022-12-07T08:08:31;4.50;4.70
3208;DHT22;1616;52.394;9.756;2022-12-07T08:10:57;4.50;5.10
3208;DHT22;1616;52.394;9.756;2022-12-07T08:13:25;4.60;5.10
3208;DHT22;1616;52.394;9.756;2022-12-07T08:15:51;4.60;5.40
3208;DHT22;1616;52.394;9.756;2022-12-07T08:18:17;4.60;5.50
3208;DHT22;1616;52.394;9.756;2022-12-07T08:20:44;4.70;5.80
3208;DHT22;1616;52.394;9.756;2022-12-07T08:23:10;4.70;5.90
3208;DHT22;1616;52.394;9.756;2022-12-07T08:25:36;4.80;6.00
3208;DHT22;1616;52.394;9.756;2022-12-07T08:28:02;4.80;6.40
3208;DHT22;1616;52.394;9.756;2022-12-07T08:30:29;4.80;6.50
3208;DHT22;1616;52.394;9.756;2022-12-07T08:32:56;4.90;6.90
3208;DHT22;1616;52.394;9.756;2022-12-07T08:35:21;5.00;6.80
3208;DHT22;1616;52.394;9.756;2022-12-07T08:37:47;5.10;6.50
3208;DHT22;1616;52.394;9.756;2022-12-07T08:40:15;5.10;6.60
3208;DHT22;1616;52.394;9.756;2022-12-07T08:42:51;5.20;7.00
3208;DHT22;1616;52.394;9.756;2022-12-07T08:45:17;5.30;7.00
3208;DHT22;1616;52.394;9.756;2022-12-07T08:50:18;5.40;6.50
3208;DHT22;1616;52.394;9.756;2022-12-07T08:52:49;5.40;6.20
3208;DHT22;1616;52.394;9.756;2022-12-07T08:55:17;5.40;6.00
3208;DHT22;1616;52.394;9.756;2022-12-07T08:57:43;5.50;6.00
3208;DHT22;1616;52.394;9.756;2022-12-07T09:00:09;5.50;5.70
3208;DHT22;1616;52.394;9.756;2022-12-07T09:02:35;5.50;5.70
3208;DHT22;1616;52.394;9.756;2022-12-07T09:05:01;5.50;5.40
3208;DHT22;1616;52.394;9.756;2022-12-07T09:07:27;5.50;5.10
3208;DHT22;1616;52.394;9.756;2022-12-07T09:09:53;5.40;5.20
3208;DHT22;1616;52.394;9.756;2022-12-07T09:12:19;5.40;5.30
3208;DHT22;1616;52.394;9.756;2022-12-07T09:14:44;5.30;5.40
3208;DHT22;1616;52.394;9.756;2022-12-07T09:17:11;5.40;5.40
3208;DHT22;1616;52.394;9.756;2022-12-07T09:19:38;5.40;5.60
3208;DHT22;1616;52.394;9.756;2022-12-07T09:22:04;5.50;5.70
3208;DHT22;1616;52.394;9.756;2022-12-07T09:24:31;5.50;5.90
3208;DHT22;1616;52.394;9.756;2022-12-07T09:26:57;5.50;5.70
3208;DHT22;1616;52.394;9.756;2022-12-07T09:29:23;5.60;5.80
3208;DHT22;1616;52.394;9.756;2022-12-07T09:31:49;5.60;5.70
3208;DHT22;1616;52.394;9.756;2022-12-07T09:34:15;5.60;5.10
3208;DHT22;1616;52.394;9.756;2022-12-07T09:36:41;5.60;4.90
3208;DHT22;1616;52.394;9.756;2022-12-07T09:39:08;5.70;5.40
3208;DHT22;1616;52.394;9.756;2022-12-07T09:41:38;5.70;5.80
3208;DHT22;1616;52.394;9.756;2022-12-07T09:44:17;5.80;7.10
3208;DHT22;1616;52.394;9.756;2022-12-07T09:46:44;6.00;9.10
3208;DHT22;1616;52.394;9.756;2022-12-07T09:49:22;6.30;11.30
3208;DHT22;1616;52.394;9.756;2022-12-07T09:52:00;6.60;12.80
3208;DHT22;1616;52.394;9.756;2022-12-07T09:54:26;6.90;12.80
3208;DHT22;1616;52.394;9.756;2022-12-07T09:56:53;7.10;12.00
3208;DHT22;1616;52.394;9.756;2022-12-07T09:59:18;7.20;10.60
3208;DHT22;1616;52.394;9.756;2022-12-07T10:01:47;7.30;8.80
3208;DHT22;1616;52.394;9.756;2022-12-07T10:04:20;7.40;7.20
3208;DHT22;1616;52.394;9.756;2022-12-07T10:06:47;7.40;5.80
3208;DHT22;1616;52.394;9.756;2022-12-07T10:09:15;7.30;4.40
3208;DHT22;1616;52.394;9.756;2022-12-07T10:12:04;7.30;5.10
3208;DHT22;1616;52.394;9.756;2022-12-07T10:14:33;7.50;9.80
3208;DHT22;1616;52.394;9.756;2022-12-07T10:16:59;8.00;14.50
3208;DHT22;1616;52.394;9.756;2022-12-07T10:19:31;8.60;18.30
3208;DHT22;1616;52.394;9.756;2022-12-07T10:24:34;9.40;8.50
3208;DHT22;1616;52.394;9.756;2022-12-07T10:27:00;9.40;5.10
3208;DHT22;1616;52.394;9.756;2022-12-07T10:29:31;9.40;2.60
3208;DHT22;1616;52.394;9.756;2022-12-07T10:32:26;9.20;1.00
3208;DHT22;1616;52.394;9.756;2022-12-07T10:35:23;9.00;1.00
3208;DHT22;1616;52.394;9.756;2022-12-07T10:37:50;8.70;1.00
3208;DHT22;1616;52.394;9.756;2022-12-07T10:40:34;8.50;1.00
3208;DHT22;1616;52.394;9.756;2022-12-07T10:43:19;8.30;1.00
3208;DHT22;1616;52.394;9.756;2022-12-07T10:49:16;7.90;1.00
3208;DHT22;1616;52.394;9.756;2022-12-07T10:52:18;7.80;1.00
3208;DHT22;1616;52.394;9.756;2022-12-07T11:05:39;7.00;1.00
3208;DHT22;1616;52.394;9.756;2022-12-07T11:13:43;6.70;1.00
3208;DHT22;1616;52.394;9.756;2022-12-07T11:16:16;6.70;1.00
3208;DHT22;1616;52.394;9.756;2022-12-07T11:21:39;6.60;1.00
3208;DHT22;1616;52.394;9.756;2022-12-07T11:35:44;5.60;1.00
3208;DHT22;1616;52.394;9.756;2022-12-07T11:38:17;5.40;1.00
3208;DHT22;1616;52.394;9.756;2022-12-07T11:40:51;5.40;1.00
3208;DHT22;1616;52.394;9.756;2022-12-07T11:43:32;5.30;1.00
3208;DHT22;1616;52.394;9.756;2022-12-07T11:46:25;5.30;1.00
3208;DHT22;1616;52.394;9.756;2022-12-07T11:49:03;5.20;1.00
3208;DHT22;1616;52.394;9.756;2022-12-07T11:51:36;5.20;1.00
3208;DHT22;1616;52.394;9.756;2022-12-07T11:54:18;5.20;1.10
3208;DHT22;1616;52.394;9.756;2022-12-07T11:56:47;5.20;1.60
3208;DHT22;1616;52.394;9.756;2022-12-07T11:59:32;5.30;2.60
3208;DHT22;1616;52.394;9.756;2022-12-07T12:02:14;5.30;2.90
3208;DHT22;1616;52.394;9.756;2022-12-07T12:04:58;5.40;3.60
3208;DHT22;1616;52.394;9.756;2022-12-07T12:07:26;5.50;4.80
3208;DHT22;1616;52.394;9.756;2022-12-07T12:10:06;5.80;7.70
3208;DHT22;1616;52.394;9.756;2022-12-07T12:15:35;6.80;14.10
3208;DHT22;1616;52.394;9.756;2022-12-07T12:18:32;7.30;12.00
3208;DHT22;1616;52.394;9.756;2022-12-07T12:21:29;7.60;7.40
3208;DHT22;1616;52.394;9.756;2022-12-07T12:24:02;7.70;4.80
3208;DHT22;1616;52.394;9.756;2022-12-07T12:26:33;7.70;3.10
3208;DHT22;1616;52.394;9.756;2022-12-07T12:29:45;7.70;1.00
3208;DHT22;1616;52.394;9.756;2022-12-07T12:32:21;7.60;1.00
3208;DHT22;1616;52.394;9.756;2022-12-07T12:42:46;7.00;1.00
3208;DHT22;1616;52.394;9.756;2022-12-07T12:45:22;6.90;1.00
3208;DHT22;1616;52.394;9.756;2022-12-07T12:50:48;6.90;1.00
3208;DHT22;1616;52.394;9.756;2022-12-07T12:53:27;6.90;1.00
3208;DHT22;1616;52.394;9.756;2022-12-07T12:56:14;6.80;1.00
3208;DHT22;1616;52.394;9.756;2022-12-07T12:58:44;6.70;1.00
3208;DHT22;1616;52.394;9.756;2022-12-07T13:03:57;6.60;1.00
3208;DHT22;1616;52.394;9.756;2022-12-07T13:08:58;6.50;1.00
3208;DHT22;1616;52.394;9.756;2022-12-07T13:11:38;6.50;1.00
3208;DHT22;1616;52.394;9.756;2022-12-07T13:22:35;6.60;1.00
3208;DHT22;1616;52.394;9.756;2022-12-07T13:27:51;6.50;1.00
3208;DHT22;1616;52.394;9.756;2022-12-07T13:30:21;6.50;1.00
3208;DHT22;1616;52.394;9.756;2022-12-07T13:32:55;6.50;1.00
3208;DHT22;1616;52.394;9.756;2022-12-07T13:37:55;6.50;1.00
3208;DHT22;1616;52.394;9.756;2022-12-07T13:40:22;6.40;1.00
3208;DHT22;1616;52.394;9.756;2022-12-07T13:43:12;6.40;1.00
3208;DHT22;1616;52.394;9.756;2022-12-07T13:45:40;6.40;1.00
3208;DHT22;1616;52.394;9.756;2022-12-07T13:48:24;6.40;1.00
3208;DHT22;1616;52.394;9.756;2022-12-07T13:50:57;6.30;1.00
3208;DHT22;1616;52.394;9.756;2022-12-07T13:53:24;6.40;1.00
3208;DHT22;1616;52.394;9.756;2022-12-07T13:55:53;6.40;1.00
3208;DHT22;1616;52.394;9.756;2022-12-07T13:58:19;6.40;1.00
3208;DHT22;1616;52.394;9.756;2022-12-07T14:00:44;6.30;1.00
3208;DHT22;1616;52.394;9.756;2022-12-07T14:05:41;6.30;1.00
3208;DHT22;1616;52.394;9.756;2022-12-07T14:10:38;6.20;1.00
3208;DHT22;1616;52.394;9.756;2022-12-07T14:13:34;6.20;1.00
3208;DHT22;1616;52.394;9.756;2022-12-07T14:16:02;6.10;1.00
3208;DHT22;1616;52.394;9.756;2022-12-07T14:18:40;6.10;1.00
3208;DHT22;1616;52.394;9.756;2022-12-07T14:21:28;6.20;1.00
3208;DHT22;1616;52.394;9.756;2022-12-07T14:24:15;6.10;1.00
3208;DHT22;1616;52.394;9.756;2022-12-07T14:26:42;6.20;1.00
3208;DHT22;1616;52.394;9.756;2022-12-07T14:31:54;6.10;1.00
3208;DHT22;1616;52.394;9.756;2022-12-07T14:34:24;6.10;1.00
3208;DHT22;1616;52.394;9.756;2022-12-07T14:36:50;6.10;1.00
3208;DHT22;1616;52.394;9.756;2022-12-07T14:39:16;6.00;1.00
3208;DHT22;1616;52.394;9.756;2022-12-07T14:41:41;6.00;1.00
3208;DHT22;1616;52.394;9.756;2022-12-07T14:44:22;5.90;1.00
3208;DHT22;1616;52.394;9.756;2022-12-07T14:46:49;5.90;1.00
3208;DHT22;1616;52.394;9.756;2022-12-07T14:49:15;5.90;1.00
3208;DHT22;1616;52.394;9.756;2022-12-07T14:51:41;5.80;1.00
3208;DHT22;1616;52.394;9.756;2022-12-07T14:54:15;5.80;1.00
3208;DHT22;1616;52.394;9.756;2022-12-07T14:56:42;5.80;1.00
3208;DHT22;1616;52.394;9.756;2022-12-07T14:59:10;5.70;1.00
3208;DHT22;1616;52.394;9.756;2022-12-07T15:01:36;5.70;1.00
3208;DHT22;1616;52.394;9.756;2022-12-07T15:04:02;5.60;1.00
3208;DHT22;1616;52.394;9.756;2022-12-07T15:06:28;5.60;1.00
3208;DHT22;1616;52.394;9.756;2022-12-07T15:08:53;5.60;1.00
3208;DHT22;1616;52.394;9.756;2022-12-07T15:11:20;5.50;1.00
3208;DHT22;1616;52.394;9.756;2022-12-07T15:13:46;5.50;1.00
3208;DHT22;1616;52.394;9.756;2022-12-07T15:16:32;5.40;1.00
3208;DHT22;1616;52.394;9.756;2022-12-07T15:18:57;5.30;1.00
3208;DHT22;1616;52.394;9.756;2022-12-07T15:21:23;5.30;1.00
3208;DHT22;1616;52.394;9.756;2022-12-07T15:23:50;5.30;1.00
3208;DHT22;1616;52.394;9.756;2022-12-07T15:26:16;5.30;1.00
3208;DHT22;1616;52.394;9.756;2022-12-07T15:28:41;5.30;1.00
3208;DHT22;1616;52.394;9.756;2022-12-07T15:31:15;5.20;1.00
3208;DHT22;1616;52.394;9.756;2022-12-07T15:33:42;5.20;1.00
3208;DHT22;1616;52.394;9.756;2022-12-07T15:36:07;5.20;1.00
3208;DHT22;1616;52.394;9.756;2022-12-07T15:38:34;5.20;1.00
3208;DHT22;1616;52.394;9.756;2022-12-07T15:41:00;5.20;1.00
3208;DHT22;1616;52.394;9.756;2022-12-07T15:43:26;5.10;1.00
3208;DHT22;1616;52.394;9.756;2022-12-07T15:46:10;5.10;1.00
3208;DHT22;1616;52.394;9.756;2022-12-07T15:48:36;5.00;1.00
3208;DHT22;1616;52.394;9.756;2022-12-07T15:51:06;5.00;1.00
3208;DHT22;1616;52.394;9.756;2022-12-07T15:53:32;5.00;1.00
3208;DHT22;1616;52.394;9.756;2022-12-07T15:55:59;4.90;1.00
3208;DHT22;1616;52.394;9.756;2022-12-07T15:58:25;4.80;1.00
3208;DHT22;1616;52.394;9.756;2022-12-07T16:00:51;4.80;1.00
3208;DHT22;1616;52.394;9.756;2022-12-07T16:03:16;4.80;1.00
3208;DHT22;1616;52.394;9.756;2022-12-07T16:05:51;4.70;1.00
3208;DHT22;1616;52.394;9.756;2022-12-07T16:08:17;4.70;1.00
3208;DHT22;1616;52.394;9.756;2022-12-07T16:10:43;4.90;1.40
3208;DHT22;1616;52.394;9.756;2022-12-07T16:13:11;5.10;1.30
3208;DHT22;1616;52.394;9.756;2022-12-07T16:15:42;5.20;1.00
3208;DHT22;1616;52.394;9.756;2022-12-07T16:18:07;5.20;1.00
3208;DHT22;1616;52.394;9.756;2022-12-07T16:20:33;5.20;1.00
3208;DHT22;1616;52.394;9.756;2022-12-07T16:22:59;5.20;1.00
3208;DHT22;1616;52.394;9.756;2022-12-07T16:25:25;5.20;1.00
3208;DHT22;1616;52.394;9.756;2022-12-07T16:27:52;5.20;1.00
3208;DHT22;1616;52.394;9.756;2022-12-07T16:30:18;5.20;1.00
3208;DHT22;1616;52.394;9.756;2022-12-07T16:32:44;5.20;1.00
3208;DHT22;1616;52.394;9.756;2022-12-07T16:35:10;5.20;1.00
3208;DHT22;1616;52.394;9.756;2022-12-07T16:37:37;5.30;1.00
3208;DHT22;1616;52.394;9.756;2022-12-07T16:40:03;5.30;1.00
3208;DHT22;1616;52.394;9.756;2022-12-07T16:42:35;5.30;1.00
3208;DHT22;1616;52.394;9.756;2022-12-07T16:45:03;5.30;1.00
3208;DHT22;1616;52.394;9.756;2022-12-07T16:47:29;5.30;1.00
3208;DHT22;1616;52.394;9.756;2022-12-07T16:49:55;5.30;1.00
3208;DHT22;1616;52.394;9.756;2022-12-07T16:52:21;5.30;1.00
3208;DHT22;1616;52.394;9.756;2022-12-07T16:54:48;5.30;1.00
3208;DHT22;1616;52.394;9.756;2022-12-07T16:57:14;5.30;1.00
3208;DHT22;1616;52.394;9.756;2022-12-07T16:59:40;5.30;1.00
3208;DHT22;1616;52.394;9.756;2022-12-07T17:02:06;5.30;1.00
3208;DHT22;1616;52.394;9.756;2022-12-07T17:04:33;5.30;1.00
3208;DHT22;1616;52.394;9.756;2022-12-07T17:06:59;5.20;1.00
3208;DHT22;1616;52.394;9.756;2022-12-07T17:09:25;5.20;1.00
3208;DHT22;1616;52.394;9.756;2022-12-07T17:11:50;5.20;1.00
3208;DHT22;1616;52.394;9.756;2022-12-07T17:14:16;5.20;1.00
3208;DHT22;1616;52.394;9.756;2022-12-07T17:17:01;5.20;1.00
3208;DHT22;1616;52.394;9.756;2022-12-07T17:19:27;5.20;1.00
3208;DHT22;1616;52.394;9.756;2022-12-07T17:21:52;5.20;1.00
3208;DHT22;1616;52.394;9.756;2022-12-07T17:24:18;5.20;1.00
3208;DHT22;1616;52.394;9.756;2022-12-07T17:26:45;5.20;1.00
3208;DHT22;1616;52.394;9.756;2022-12-07T17:29:12;5.20;1.00
3208;DHT22;1616;52.394;9.756;2022-12-07T17:31:39;5.20;1.00
3208;DHT22;1616;52.394;9.756;2022-12-07T17:34:10;5.30;1.00
3208;DHT22;1616;52.394;9.756;2022-12-07T17:36:37;5.30;1.00
3208;DHT22;1616;52.394;9.756;2022-12-07T17:39:10;5.30;1.00
3208;DHT22;1616;52.394;9.756;2022-12-07T17:41:37;5.30;1.00
3208;DHT22;1616;52.394;9.756;2022-12-07T17:44:21;5.20;1.00
3208;DHT22;1616;52.394;9.756;2022-12-07T17:46:50;5.00;1.00
3208;DHT22;1616;52.394;9.756;2022-12-07T17:49:20;4.90;1.00
3208;DHT22;1616;52.394;9.756;2022-12-07T17:51:46;4.80;1.00
3208;DHT22;1616;52.394;9.756;2022-12-07T17:54:30;4.70;1.00
3208;DHT22;1616;52.394;9.756;2022-12-07T17:56:56;4.60;1.00
3208;DHT22;1616;52.394;9.756;2022-12-07T17:59:23;4.60;1.00
3208;DHT22;1616;52.394;9.756;2022-12-07T18:01:49;4.60;1.00
3208;DHT22;1616;52.394;9.756;2022-12-07T18:04:15;4.50;1.00
3208;DHT22;1616;52.394;9.756;2022-12-07T18:06:41;4.50;1.00
3208;DHT22;1616;52.394;9.756;2022-12-07T18:09:07;4.40;1.00
3208;DHT22;1616;52.394;9.756;2022-12-07T18:11:33;4.40;1.00
3208;DHT22;1616;52.394;9.756;2022-12-07T18:13:59;4.40;1.00
3208;DHT22;1616;52.394;9.756;2022-12-07T18:16:27;4.40;1.00
3208;DHT22;1616;52.394;9.756;2022-12-07T18:18:54;4.40;1.00
3208;DHT22;1616;52.394;9.756;2022-12-07T18:21:25;4.40;1.00
3208;DHT22;1616;52.394;9.756;2022-12-07T18:23:53;4.40;1.00
3208;DHT22;1616;52.394;9.756;2022-12-07T18:26:20;4.40;1.00
3208;DHT22;1616;52.394;9.756;2022-12-07T18:28:47;4.40;1.00
3208;DHT22;1616;52.394;9.756;2022-12-07T18:31:13;4.40;1.00
3208;DHT22;1616;52.394;9.756;2022-12-07T18:33:40;4.40;1.00
3208;DHT22;1616;52.394;9.756;2022-12-07T18:36:06;4.40;1.00
3208;DHT22;1616;52.394;9.756;2022-12-07T18:38:34;4.40;1.00
3208;DHT22;1616;52.394;9.756;2022-12-07T18:41:00;4.40;1.00
3208;DHT22;1616;52.394;9.756;2022-12-07T18:43:27;4.40;1.00
3208;DHT22;1616;52.394;9.756;2022-12-07T18:45:53;4.40;1.00